Time;durP1;ratioP1;P1;durP2;ratioP2;P2;SDS_P1;SDS_P2;PMS_P1;PMS_P2;Temp;Humidity;BMP_temperature;BMP_pressure;BME280_temperature;BME280_humidity;BME280_pressure;Samples;Min_cycle;Max_cycle;Signal;HPM_P1;HPM_P2
2021/05/18 00:00:11;;;;;;;3.35;3.15;;;;;;;8.63;81.59;100006.31;6121948;23;20021;-72
2021/05/18 00:02:37;;;;;;;5.38;2.97;;;;;;;8.61;81.07;100008.50;6122770;23;20640;-73
2021/05/18 00:05:05;;;;;;;5.78;3.30;;;;;;;8.55;81.31;100008.47;6127384;23;20045;-72
2021/05/18 00:07:31;;;;;;;3.13;2.72;;;;;;;8.56;81.86;100006.56;6121260;23;20017;-72
2021/05/18 00:12:40;;;;;;;2.72;2.53;;;;;;;8.56;81.99;100012.84;6126123;23;20021;-72
2021/05/18 00:15:13;;;;;;;2.75;2.33;;;;;;;8.51;81.63;100015.53;6117587;23;20006;-71
2021/05/18 00:17:39;;;;;;;5.13;2.80;;;;;;;8.52;81.77;100010.91;6125549;23;20006;-72
2021/05/18 00:20:09;;;;;;;5.07;3.15;;;;;;;8.52;82.46;100022.63;6124493;23;20010;-73
2021/05/18 00:22:35;;;;;;;4.07;2.75;;;;;;;8.51;82.26;100012.81;6119641;23;20060;-72
2021/05/18 00:25:01;;;;;;;8.65;2.67;;;;;;;8.48;81.40;100012.50;6124524;23;20014;-73
2021/05/18 00:27:29;;;;;;;2.40;2.20;;;;;;;8.49;82.43;100016.88;6116405;23;20420;-73
2021/05/18 00:29:55;;;;;;;2.42;1.90;;;;;;;8.50;81.10;100016.63;6122047;23;20275;-72
2021/05/18 00:32:21;;;;;;;3.08;2.53;;;;;;;8.46;81.55;100017.41;6095378;23;20037;-72
2021/05/18 00:34:48;;;;;;;3.05;2.35;;;;;;;8.41;81.21;100017.31;6118129;23;20440;-72
2021/05/18 00:37:14;;;;;;;5.88;2.15;;;;;;;8.34;81.29;100003.94;6121264;23;20014;-72
2021/05/18 00:39:39;;;;;;;5.85;2.33;;;;;;;8.38;81.33;100013.22;6122496;23;20420;-71
2021/05/18 00:42:14;;;;;;;2.25;2.10;;;;;;;8.33;81.47;100018.63;6122676;23;20009;-70
2021/05/18 00:44:39;;;;;;;2.50;2.03;;;;;;;8.30;81.52;100024.63;6123416;23;20006;-73
2021/05/18 00:47:05;;;;;;;6.55;2.20;;;;;;;8.26;81.80;100020.75;6121589;23;20730;-72
2021/05/18 00:49:30;;;;;;;5.00;1.90;;;;;;;8.24;82.05;100025.66;6095957;23;20072;-72
2021/05/18 00:51:56;;;;;;;1.75;1.65;;;;;;;8.23;81.18;100018.56;6122497;23;20018;-72
2021/05/18 00:54:25;;;;;;;2.05;1.85;;;;;;;8.22;81.50;100023.19;6125331;23;20080;-72
2021/05/18 00:59:35;;;;;;;2.58;2.38;;;;;;;8.19;81.74;100024.53;6121249;23;20029;-72
2021/05/18 01:02:00;;;;;;;4.75;2.25;;;;;;;8.16;80.93;100025.06;6123225;23;20429;-72
2021/05/18 01:04:26;;;;;;;5.78;2.03;;;;;;;8.14;80.98;100021.75;6120186;23;20165;-73
2021/05/18 01:06:52;;;;;;;2.42;2.10;;;;;;;8.15;81.77;100022.59;6122317;23;20030;-72
2021/05/18 01:09:17;;;;;;;2.60;2.47;;;;;;;8.12;81.17;100023.94;6118493;23;20458;-72
2021/05/18 01:11:45;;;;;;;8.48;1.80;;;;;;;8.12;81.57;100032.09;6154778;23;20428;-72
2021/05/18 01:14:16;;;;;;;6.55;2.00;;;;;;;8.10;81.45;100028.78;6153947;23;20032;-70
2021/05/18 01:16:46;;;;;;;5.72;2.60;;;;;;;8.01;81.06;100030.34;6154764;23;20005;-72
2021/05/18 01:19:13;;;;;;;2.22;1.88;;;;;;;8.02;80.95;100034.72;6128225;23;20010;-71
2021/05/18 01:21:39;;;;;;;5.78;1.95;;;;;;;8.01;80.79;100031.16;6124932;23;20056;-72
2021/05/18 01:24:06;;;;;;;2.42;2.30;;;;;;;8.00;80.89;100042.31;6104352;23;20014;-72
2021/05/18 01:26:33;;;;;;;1.80;1.58;;;;;;;7.95;81.61;100043.09;6102752;23;20017;-73
2021/05/18 01:28:59;;;;;;;3.25;2.00;;;;;;;7.94;81.34;100043.34;6154956;23;20048;-73
2021/05/18 01:31:26;;;;;;;3.05;2.30;;;;;;;7.88;81.45;100045.22;6145686;23;20036;-74
2021/05/18 01:33:54;;;;;;;5.00;2.60;;;;;;;7.85;81.20;100041.09;6146714;23;20440;-74
2021/05/18 01:36:22;;;;;;;5.30;2.63;;;;;;;7.78;81.40;100039.66;6155566;23;20352;-74
2021/05/18 01:44:15;;;;;;;3.33;3.10;;;;;;;7.71;82.28;100039.88;6152595;23;20016;-74
2021/05/18 01:46:43;;;;;;;3.38;3.15;;;;;;;7.70;82.49;100038.22;6128799;23;20089;-74
2021/05/18 01:49:11;;;;;;;6.05;3.17;;;;;;;7.64;81.51;100028.38;6156766;23;20761;-74
2021/05/18 01:51:43;;;;;;;3.28;2.97;;;;;;;7.65;81.27;100036.28;6158040;23;20005;-72
2021/05/18 01:54:23;;;;;;;3.35;3.15;;;;;;;7.63;81.71;100037.59;6152827;23;20060;-73
2021/05/18 01:56:53;;;;;;;3.20;2.90;;;;;;;7.60;81.56;100035.41;6153933;23;20440;-72
2021/05/18 01:59:22;;;;;;;2.72;2.63;;;;;;;7.58;82.77;100023.94;6129566;23;20009;-73
2021/05/18 02:01:50;;;;;;;3.33;3.03;;;;;;;7.62;82.71;100039.53;6131135;23;20006;-73
2021/05/18 02:04:31;;;;;;;3.88;2.92;;;;;;;7.64;82.05;100039.25;6157925;23;20385;-73
2021/05/18 02:06:58;;;;;;;5.82;3.22;;;;;;;7.61;82.50;100034.34;6155357;23;20084;-73
2021/05/18 02:09:24;;;;;;;2.85;2.65;;;;;;;7.57;81.86;100038.63;6123500;23;20045;-73
2021/05/18 02:11:50;;;;;;;6.70;3.05;;;;;;;7.57;81.89;100038.63;6154808;23;20412;-72
2021/05/18 02:14:29;;;;;;;2.80;2.60;;;;;;;7.55;81.77;100024.44;6105200;23;20010;-71
2021/05/18 02:17:08;;;;;;;3.28;2.90;;;;;;;7.55;82.25;100040.78;6106620;23;20459;-72
2021/05/18 02:20:17;;;;;;;3.17;2.97;;;;;;;7.53;82.56;100048.38;6153853;23;20002;-72
2021/05/18 02:25:28;;;;;;;;;;;;;;;7.55;82.26;100047.06;6151852;23;20024;-72
2021/05/18 02:27:56;;;;;;;3.28;2.97;;;;;;;7.50;81.83;100042.38;6126130;23;19905;-72
2021/05/18 02:30:22;;;;;;;8.68;3.38;;;;;;;7.50;82.65;100050.56;6126087;23;20064;-72
2021/05/18 02:32:49;;;;;;;6.38;3.42;;;;;;;7.48;81.82;100057.31;6124662;23;20016;-73
2021/05/18 02:35:15;;;;;;;3.28;3.08;;;;;;;7.48;81.50;100052.69;6127972;23;20878;-73
2021/05/18 02:37:42;;;;;;;4.93;3.42;;;;;;;7.48;82.29;100051.88;6126012;23;20013;-72
2021/05/18 02:40:17;;;;;;;3.40;3.13;;;;;;;7.43;81.82;100055.38;6152482;23;20005;-71
2021/05/18 02:42:43;;;;;;;7.82;3.05;;;;;;;7.43;81.90;100049.06;6152058;23;20005;-71
2021/05/18 02:45:19;;;;;;;3.20;3.00;;;;;;;7.39;81.33;100048.78;6129411;23;20030;-73
2021/05/18 02:50:30;;;;;;;3.08;2.55;;;;;;;7.36;81.95;100053.88;6156210;23;20488;-71
2021/05/18 02:52:55;;;;;;;3.55;3.33;;;;;;;7.30;82.24;100056.56;6129570;23;20032;-74
2021/05/18 02:55:28;;;;;;;4.20;2.80;;;;;;;7.34;82.33;100057.72;6130541;23;20005;-76
2021/05/18 02:57:53;;;;;;;3.00;2.90;;;;;;;7.32;81.71;100053.59;6155750;23;20001;-72
2021/05/18 03:00:22;;;;;;;4.30;3.05;;;;;;;7.25;82.36;100047.50;6120970;23;20020;-72
2021/05/18 03:02:50;;;;;;;4.50;3.20;;;;;;;7.25;82.63;100059.22;6121631;23;20012;-73
2021/05/18 03:05:16;;;;;;;6.82;2.80;;;;;;;7.23;82.22;100060.53;6152129;23;20011;-73
2021/05/18 03:07:41;;;;;;;3.03;2.83;;;;;;;7.20;82.26;100066.47;6121878;23;20012;-72
2021/05/18 03:10:07;;;;;;;6.90;2.85;;;;;;;7.18;82.44;100061.28;6122164;23;20010;-73
2021/05/18 03:12:33;;;;;;;3.72;3.03;;;;;;;7.21;82.42;100068.13;6118050;23;20005;-73
2021/05/18 03:14:59;;;;;;;3.15;3.00;;;;;;;7.20;82.22;100063.75;6066068;23;20012;-72
2021/05/18 03:17:25;;;;;;;7.53;3.60;;;;;;;7.18;82.47;100060.47;6123961;23;20298;-71
2021/05/18 03:19:51;;;;;;;5.28;2.60;;;;;;;7.12;82.59;100063.13;6123204;23;20014;-71
2021/05/18 03:22:16;;;;;;;3.22;3.08;;;;;;;7.11;81.98;100069.66;6096490;23;20443;-72
2021/05/18 03:24:42;;;;;;;3.10;2.90;;;;;;;7.09;82.12;100082.66;6122477;23;20084;-72
2021/05/18 03:27:11;;;;;;;3.40;3.20;;;;;;;7.06;83.14;100076.91;6124988;23;20096;-71
2021/05/18 03:29:36;;;;;;;2.30;2.20;;;;;;;7.05;82.73;100081.50;6122847;23;20014;-72
2021/05/18 03:34:47;;;;;;;7.93;2.90;;;;;;;6.99;82.35;100077.06;6120963;23;20097;-72
2021/05/18 03:37:25;;;;;;;2.75;2.65;;;;;;;6.97;82.81;100079.25;6097766;23;20002;-74
2021/05/18 03:39:55;;;;;;;2.58;2.35;;;;;;;6.93;82.63;100070.75;6124218;23;20014;-73
2021/05/18 03:42:29;;;;;;;2.15;2.05;;;;;;;6.91;81.97;100075.63;6095607;23;20013;-71
2021/05/18 03:53:37;;;;;;;2.72;2.53;;;;;;;6.75;81.74;100071.03;6122803;23;20107;-72
2021/05/18 04:17:25;;;;;;;4.40;2.72;;;;;;;6.42;82.47;100068.09;6098487;23;20083;-73
2021/05/18 04:39:12;;;;;;;7.18;3.30;;;;;;;6.58;82.14;100081.91;6120613;23;20041;-72
2021/05/18 04:50:05;;;;;;;2.35;2.25;;;;;;;6.50;82.26;100079.59;6105211;23;20037;-72
2021/05/18 05:00:44;;;;;;;2.80;2.63;;;;;;;6.68;82.56;100092.94;6102927;23;20017;-71
2021/05/18 05:16:25;;;;;;;3.20;3.00;;;;;;;7.64;82.37;100090.97;6124420;23;20017;-73
2021/05/18 05:18:52;;;;;;;2.25;2.15;;;;;;;7.81;81.35;100094.44;6128464;23;20333;-71
2021/05/18 05:21:20;;;;;;;8.15;2.55;;;;;;;7.96;81.82;100090.22;6067361;23;20450;-72
2021/05/18 05:23:46;;;;;;;6.93;3.10;;;;;;;8.04;81.81;100087.88;6101314;23;20010;-72
2021/05/18 05:26:12;;;;;;;3.10;2.47;;;;;;;8.20;81.77;100090.72;6127838;23;20006;-73
2021/05/18 05:28:37;;;;;;;2.72;2.53;;;;;;;8.31;81.22;100086.16;6097092;23;20034;-73
2021/05/18 05:31:03;;;;;;;2.30;2.20;;;;;;;8.39;81.92;100096.59;6100606;23;20010;-73
2021/05/18 05:33:28;;;;;;;4.20;2.20;;;;;;;8.50;81.06;100094.84;6097257;23;20448;-71
2021/05/18 05:35:54;;;;;;;2.85;2.15;;;;;;;8.58;81.53;100098.97;6090979;23;20002;-72
2021/05/18 05:38:22;;;;;;;2.42;2.28;;;;;;;8.62;80.80;100100.09;6074522;23;20006;-71
2021/05/18 05:40:47;;;;;;;3.65;2.17;;;;;;;8.67;81.08;100100.97;6120152;23;20065;-73
2021/05/18 05:43:13;;;;;;;2.75;2.40;;;;;;;8.71;80.79;100101.25;6118333;23;20010;-72
2021/05/18 05:45:38;;;;;;;2.88;2.58;;;;;;;8.77;80.86;100110.28;6125764;23;20440;-71
2021/05/18 05:48:04;;;;;;;5.95;2.97;;;;;;;8.85;80.23;100113.34;6098537;23;20014;-72
2021/05/18 05:50:29;;;;;;;3.17;2.42;;;;;;;8.93;80.30;100108.50;6075853;23;20118;-72
2021/05/18 05:52:55;;;;;;;2.53;2.33;;;;;;;9.10;79.98;100111.88;6125504;23;20436;-71
2021/05/18 05:55:20;;;;;;;4.15;2.58;;;;;;;9.19;79.70;100109.47;6124027;23;19998;-72
2021/05/18 05:57:46;;;;;;;4.72;2.30;;;;;;;9.28;79.11;100110.59;6124873;23;20060;-71
2021/05/18 06:00:12;;;;;;;3.13;2.05;;;;;;;9.38;79.24;100121.56;6125267;23;20093;-69
2021/05/18 06:02:38;;;;;;;2.60;2.40;;;;;;;9.56;79.00;100128.50;6124425;23;20064;-72
2021/05/18 06:05:05;;;;;;;2.38;1.88;;;;;;;9.74;78.34;100118.19;6100056;23;20052;-71
2021/05/18 06:07:30;;;;;;;2.60;2.13;;;;;;;9.93;77.80;100130.25;6123090;23;20006;-71
2021/05/18 06:10:01;;;;;;;4.55;1.83;;;;;;;10.05;77.94;100126.47;6127303;23;20104;-71
2021/05/18 06:42:07;;;;;;;1.52;1.42;;;;;;;10.79;76.06;100165.38;6133157;23;20010;-73
2021/05/18 06:47:32;;;;;;;3.85;1.20;;;;;;;11.15;75.65;100165.34;6126040;23;20024;-72
2021/05/18 06:50:22;;;;;;;4.63;1.50;;;;;;;11.23;74.79;100167.53;6100009;23;20014;-72
2021/05/18 06:52:46;;;;;;;1.30;1.20;;;;;;;11.29;74.83;100166.41;6122796;23;20017;-73
2021/05/18 06:55:19;;;;;;;1.20;1.20;;;;;;;11.32;74.43;100157.66;6128382;23;19998;-74
2021/05/18 06:57:48;;;;;;;1.63;1.48;;;;;;;11.39;73.88;100162.84;6104534;23;20010;-72
2021/05/18 07:00:20;;;;;;;2.92;1.08;;;;;;;11.47;74.07;100158.72;6077739;23;20010;-74
2021/05/18 07:02:47;;;;;;;1.15;1.05;;;;;;;11.58;73.93;100165.78;6084342;23;20050;-73
2021/05/18 07:05:23;;;;;;;1.30;1.20;;;;;;;11.76;73.28;100169.03;6135123;23;20002;-73
2021/05/18 07:10:35;;;;;;;3.72;1.00;;;;;;;11.97;72.32;100159.66;6107777;23;20021;-74
2021/05/18 07:13:00;;;;;;;1.75;1.52;;;;;;;11.97;71.83;100153.31;6057806;23;20337;-73
2021/05/18 07:15:44;;;;;;;2.85;1.45;;;;;;;12.04;71.99;100160.13;6084734;23;20016;-73
2021/05/18 07:18:10;;;;;;;1.15;1.05;;;;;;;12.16;71.81;100159.81;6131819;23;20012;-72
2021/05/18 07:20:36;;;;;;;1.60;1.02;;;;;;;12.34;71.40;100161.06;6106762;23;20013;-72
2021/05/18 07:23:08;;;;;;;1.38;0.80;;;;;;;12.48;70.67;100154.94;6106864;23;20344;-76
2021/05/18 07:25:34;;;;;;;1.95;1.00;;;;;;;12.58;69.99;100157.59;6109716;23;20010;-77
2021/05/18 07:28:01;;;;;;;1.45;1.00;;;;;;;12.69;69.98;100164.66;6135810;23;20006;-76
2021/05/18 07:30:26;;;;;;;2.67;1.02;;;;;;;12.84;69.25;100165.63;6110535;23;20009;-76
2021/05/18 07:32:52;;;;;;;3.65;0.70;;;;;;;13.00;68.67;100156.16;6084997;23;20014;-76
2021/05/18 07:35:17;;;;;;;3.47;1.30;;;;;;;13.25;67.94;100157.00;6108366;23;20002;-76
2021/05/18 07:37:46;;;;;;;3.25;0.77;;;;;;;13.34;66.71;100160.78;6083737;23;20429;-76
2021/05/18 07:40:12;;;;;;;4.30;1.00;;;;;;;13.35;66.26;100162.44;6136218;23;20018;-76
2021/05/18 07:42:37;;;;;;;1.05;0.70;;;;;;;13.36;67.00;100169.56;6086981;23;20017;-76
2021/05/18 07:45:03;;;;;;;2.75;0.98;;;;;;;13.37;65.97;100171.19;6111226;23;20422;-76
2021/05/18 07:47:33;;;;;;;1.10;0.65;;;;;;;13.39;66.01;100174.47;6134546;23;20006;-76
2021/05/18 07:50:04;;;;;;;1.27;0.75;;;;;;;13.40;65.70;100164.28;6110507;23;20013;-75
2021/05/18 08:05:53;;;;;;;1.52;0.50;;;;;;;14.63;61.82;100172.88;6136168;23;20009;-76
2021/05/18 08:08:19;;;;;;;0.80;0.50;;;;;;;14.73;61.71;100183.72;6129783;23;20020;-76
2021/05/18 08:10:48;;;;;;;0.75;0.40;;;;;;;14.89;60.98;100180.72;6105659;23;20006;-78
2021/05/18 08:13:19;;;;;;;0.30;0.20;;;;;;;14.98;60.23;100177.00;6127548;23;20002;-77
2021/05/18 09:01:57;;;;;;;0.70;0.40;;;;;;;17.07;50.85;100202.41;6144036;23;20014;-74
2021/05/18 09:34:22;;;;;;;3.05;0.32;;;;;;;17.19;49.53;100176.97;6148614;23;20020;-75
2021/05/18 10:36:41;;;;;;;0.98;0.30;;;;;;;24.69;32.01;100176.84;6128786;23;20096;-73
2021/05/18 10:39:21;;;;;;;1.75;0.63;;;;;;;25.11;29.63;100166.06;6122864;23;20014;-73
2021/05/18 10:41:48;;;;;;;0.60;0.30;;;;;;;25.88;30.00;100159.38;6129572;23;20009;-75
2021/05/18 10:44:14;;;;;;;1.02;0.20;;;;;;;26.93;27.89;100164.41;6121909;23;20017;-73
2021/05/18 10:46:47;;;;;;;2.13;0.45;;;;;;;26.86;26.42;100158.72;6127545;23;20365;-76
2021/05/18 10:49:13;;;;;;;0.52;0.30;;;;;;;26.52;25.62;100153.09;6128219;23;20105;-73
2021/05/18 10:51:45;;;;;;;1.02;0.20;;;;;;;25.49;26.74;100153.97;6126420;23;20081;-71
2021/05/18 10:54:25;;;;;;;0.75;0.20;;;;;;;25.50;28.03;100161.19;6103274;23;20006;-73
2021/05/18 10:56:57;;;;;;;0.80;0.30;;;;;;;26.28;26.65;100158.00;6103096;23;20033;-73
2021/05/18 10:59:30;;;;;;;2.70;0.30;;;;;;;26.19;26.42;100154.66;6130713;23;20029;-72
2021/05/18 11:02:20;;;;;;;0.45;0.22;;;;;;;25.20;26.73;100161.84;6129416;23;20033;-72
2021/05/18 11:04:54;;;;;;;0.98;0.50;;;;;;;23.93;27.75;100162.38;6129298;23;20022;-74
2021/05/18 11:07:50;;;;;;;6.15;0.73;;;;;;;22.94;29.96;100163.03;6101949;23;20052;-72
2021/05/18 11:10:20;;;;;;;0.75;0.40;;;;;;;21.90;32.47;100166.31;6099587;23;20049;-71
2021/05/18 11:12:47;;;;;;;1.80;0.63;;;;;;;20.87;34.12;100170.78;6128158;23;20017;-71
2021/05/18 11:15:23;;;;;;;0.47;0.45;;;;;;;20.15;35.79;100168.06;6125358;23;20013;-71
2021/05/18 11:17:51;;;;;;;1.58;0.70;;;;;;;19.67;36.25;100170.94;6126694;23;20076;-71
2021/05/18 11:25:49;;;;;;;1.10;0.50;;;;;;;20.88;38.72;100166.84;6129399;23;20017;-70
2021/05/18 11:28:36;;;;;;;0.40;0.20;;;;;;;22.91;34.83;100169.31;6126902;23;20428;-71
2021/05/18 11:31:08;;;;;;;1.38;0.40;;;;;;;23.98;32.92;100170.50;6126026;23;20038;-72
2021/05/18 11:33:36;;;;;;;4.03;0.50;;;;;;;24.91;30.70;100161.31;6123149;23;20436;-71
2021/05/18 11:36:04;;;;;;;1.40;0.40;;;;;;;25.70;29.57;100172.28;6128463;23;20013;-72
2021/05/18 11:38:33;;;;;;;1.30;0.50;;;;;;;25.19;28.32;100165.00;6123723;23;20406;-70
2021/05/18 11:40:59;;;;;;;2.17;0.52;;;;;;;24.45;29.58;100161.16;6126998;23;20016;-72
2021/05/18 11:43:27;;;;;;;1.42;0.45;;;;;;;24.13;29.79;100166.84;6125076;23;20034;-72
2021/05/18 11:46:03;;;;;;;2.88;0.80;;;;;;;23.50;30.23;100150.97;6131469;23;20086;-72
2021/05/18 11:48:28;;;;;;;1.45;0.93;;;;;;;22.54;30.99;100166.69;6121180;23;20016;-72
2021/05/18 11:51:20;;;;;;;1.38;0.60;;;;;;;21.33;33.40;100152.13;6131892;23;20010;-71
2021/05/18 11:53:48;;;;;;;4.20;0.80;;;;;;;20.00;39.79;100167.50;6125114;23;20001;-72
2021/05/18 11:56:30;;;;;;;0.73;0.63;;;;;;;18.46;51.48;100170.06;6129086;23;20006;-73
2021/05/18 11:59:03;;;;;;;2.25;0.93;;;;;;;17.23;56.75;100166.09;6122040;23;20451;-73
2021/05/18 12:01:31;;;;;;;4.05;1.02;;;;;;;16.50;58.38;100182.78;6128244;23;20033;-74
2021/05/18 12:04:08;;;;;;;4.00;0.90;;;;;;;15.81;59.25;100170.78;6122580;23;20089;-73
2021/05/18 12:06:35;;;;;;;6.18;0.70;;;;;;;15.12;57.17;100179.75;6125458;23;20020;-74
2021/05/18 12:09:05;;;;;;;5.72;0.85;;;;;;;14.61;59.92;100197.09;6086495;23;20021;-75
2021/05/18 12:11:31;;;;;;;2.13;0.60;;;;;;;14.01;68.11;100189.41;6121584;23;20006;-74
2021/05/18 12:13:57;;;;;;;9.00;1.13;;;;;;;13.36;70.33;100188.78;6123189;23;20002;-73
2021/05/18 12:16:24;;;;;;;3.45;1.08;;;;;;;12.84;71.76;100213.09;6124723;23;20040;-75
2021/05/18 12:18:58;;;;;;;4.13;0.68;;;;;;;12.36;76.08;100224.66;6124803;23;20044;-73
2021/05/18 12:21:29;;;;;;;2.38;0.40;;;;;;;11.94;77.92;100198.53;6115842;23;20006;-74
2021/05/18 12:24:08;;;;;;;6.43;0.82;;;;;;;11.62;78.92;100216.19;6100309;23;20001;-75
2021/05/18 12:26:45;;;;;;;2.03;0.43;;;;;;;11.34;79.89;100226.63;6099743;23;20025;-72
2021/05/18 12:29:11;;;;;;;3.75;0.40;;;;;;;11.09;79.47;100226.66;6129566;23;20010;-74
2021/05/18 12:31:37;;;;;;;1.27;0.32;;;;;;;10.89;80.55;100233.75;6099573;23;20041;-74
2021/05/18 12:34:05;;;;;;;1.98;0.25;;;;;;;10.95;81.32;100224.47;6124354;23;20351;-73
2021/05/18 12:36:44;;;;;;;1.45;0.40;;;;;;;11.26;81.89;100229.94;6102866;23;20092;-74
2021/05/18 12:39:11;;;;;;;2.53;0.30;;;;;;;11.67;81.61;100226.28;6100725;23;20009;-73
2021/05/18 12:42:02;;;;;;;1.65;0.32;;;;;;;12.11;81.54;100211.91;6127389;23;20006;-75
2021/05/18 12:45:01;;;;;;;4.93;1.00;;;;;;;12.95;81.61;100213.81;6130048;23;20006;-74
2021/05/18 12:47:50;;;;;;;1.23;0.32;;;;;;;14.66;79.81;100222.63;6125770;23;20013;-74
2021/05/18 12:50:17;;;;;;;1.48;0.20;;;;;;;16.18;76.05;100221.31;6103250;23;20018;-73
2021/05/18 12:52:52;;;;;;;1.88;0.40;;;;;;;16.25;74.61;100225.56;6127356;23;19998;-74
2021/05/18 12:55:25;;;;;;;4.57;0.73;;;;;;;15.81;74.24;100234.19;6126831;23;20024;-73
2021/05/18 12:57:58;;;;;;;1.20;0.40;;;;;;;15.35;75.81;100232.25;6099825;23;20006;-74
2021/05/18 13:00:31;;;;;;;0.90;0.38;;;;;;;15.15;76.15;100225.97;6125589;23;20060;-75
2021/05/18 13:03:11;;;;;;;1.50;0.50;;;;;;;14.91;75.86;100228.03;6100443;23;20005;-74
2021/05/18 13:05:51;;;;;;;;;;;;;;;;;;;;;
2021/05/18 13:08:50;;;;;;;0.47;0.20;;;;;;;14.71;76.97;100215.44;6126357;23;20089;-73
2021/05/18 13:13:41;;;;;;;5.10;0.82;;;;;;;14.71;75.59;100227.25;6135476;23;20002;-73
2021/05/18 13:16:25;;;;;;;2.40;0.70;;;;;;;14.60;74.87;100222.97;6123126;23;20009;-73
2021/05/18 13:18:55;;;;;;;9.25;0.90;;;;;;;14.46;73.88;100229.22;6125448;23;20532;-73
2021/05/18 13:21:32;;;;;;;3.10;0.80;;;;;;;14.30;73.53;100236.06;6097443;23;20017;-74
2021/05/18 13:26:27;;;;;;;3.70;0.57;;;;;;;14.31;72.56;100223.94;6097945;23;20010;-72
2021/05/18 13:29:04;;;;;;;0.68;0.32;;;;;;;14.49;72.63;100223.13;6120882;23;20036;-73
2021/05/18 13:31:31;;;;;;;3.03;0.60;;;;;;;14.60;71.11;100220.22;6124117;23;20022;-73
2021/05/18 13:33:57;;;;;;;1.02;0.45;;;;;;;14.77;71.59;100234.28;6123148;23;20034;-72
2021/05/18 13:36:22;;;;;;;1.70;0.40;;;;;;;14.91;71.04;100231.63;6094078;23;20009;-72
2021/05/18 13:38:48;;;;;;;2.70;0.52;;;;;;;15.08;69.70;100228.28;6093885;23;20429;-72
2021/05/18 13:41:16;;;;;;;1.38;0.40;;;;;;;15.16;68.76;100221.31;6074373;23;20005;-72
2021/05/18 13:43:41;;;;;;;1.95;0.30;;;;;;;15.46;67.82;100222.69;6123656;23;20041;-72
2021/05/18 13:46:08;;;;;;;5.00;0.75;;;;;;;15.96;64.86;100237.75;6123023;23;20022;-71
2021/05/18 13:48:46;;;;;;;;;;;;;;;;;;;;;
2021/05/18 13:51:16;;;;;;;1.70;0.55;;;;;;;15.79;63.52;100219.88;6123564;23;20085;-73
2021/05/18 13:53:42;;;;;;;2.05;0.38;;;;;;;15.56;64.53;100229.13;6094632;23;20325;-73
2021/05/18 13:56:09;;;;;;;6.70;0.65;;;;;;;15.27;64.62;100230.19;6125287;23;20333;-74
2021/05/18 13:58:34;;;;;;;2.17;0.45;;;;;;;14.87;66.12;100238.03;6123046;23;20311;-73
2021/05/18 14:01:06;;;;;;;3.22;0.50;;;;;;;14.26;70.76;100235.00;6124618;23;20045;-73
2021/05/18 14:03:33;;;;;;;0.80;0.30;;;;;;;13.85;73.05;100227.28;6098904;23;20421;-71
2021/05/18 14:05:58;;;;;;;2.25;0.40;;;;;;;13.69;75.18;100221.94;6096282;23;20025;-73
2021/05/18 14:08:31;;;;;;;2.92;0.90;;;;;;;13.84;76.20;100222.88;6097131;23;20030;-71
2021/05/18 14:11:07;;;;;;;2.05;0.40;;;;;;;14.13;76.45;100204.38;6123912;23;20010;-73
2021/05/18 14:13:36;;;;;;;2.20;0.38;;;;;;;14.40;75.66;100219.41;6097622;23;20002;-73
2021/05/18 14:16:04;;;;;;;3.25;0.70;;;;;;;14.56;73.96;100221.94;6129251;23;20041;-71
2021/05/18 14:18:30;;;;;;;4.78;0.30;;;;;;;14.62;71.48;100209.78;6100499;23;19998;-74
2021/05/18 14:20:56;;;;;;;0.22;0.20;;;;;;;14.84;68.62;100217.41;6124053;23;20033;-73
2021/05/18 14:23:26;;;;;;;0.35;0.10;;;;;;;15.42;70.27;100207.88;6125137;23;20006;-75
2021/05/18 14:25:53;;;;;;;1.10;0.20;;;;;;;16.85;69.29;100199.63;6120699;23;20459;-74
2021/05/18 14:28:19;;;;;;;0.10;0.03;;;;;;;17.81;65.24;100200.16;6128752;23;20061;-74
2021/05/18 14:30:54;;;;;;;0.65;0.20;;;;;;;19.43;65.18;100209.53;6129662;23;20009;-73
2021/05/18 14:33:22;;;;;;;0.00;0.00;;;;;;;20.81;60.60;100208.25;6092354;23;20012;-75
2021/05/18 14:35:47;;;;;;;0.15;0.10;;;;;;;21.98;54.33;100201.59;6125487;23;20014;-75
2021/05/18 14:38:18;;;;;;;0.00;0.00;;;;;;;22.41;49.08;100197.34;6075643;23;20452;-75
2021/05/18 14:46:12;;;;;;;0.30;0.20;;;;;;;21.61;44.14;100187.66;6111292;23;20337;-75
2021/05/18 14:57:05;;;;;;;0.47;0.13;;;;;;;24.29;38.62;100205.09;6108239;23;20014;-77
2021/05/18 14:59:40;;;;;;;;;;;;;;;;;;;;;
2021/05/18 15:02:06;;;;;;;0.13;0.10;;;;;;;23.86;37.02;100208.50;6110338;23;20100;-77
2021/05/18 15:04:34;;;;;;;0.10;0.10;;;;;;;23.21;38.29;100194.88;6077410;23;20010;-77
2021/05/18 15:07:12;;;;;;;;;;;;;;;;;;;;;
2021/05/18 15:09:39;;;;;;;2.20;0.10;;;;;;;21.63;38.55;100179.78;6127773;23;20093;-78
2021/05/18 15:12:06;;;;;;;2.47;0.30;;;;;;;20.91;40.65;100193.97;6099125;23;20456;-77
2021/05/18 15:14:39;;;;;;;0.45;0.13;;;;;;;20.41;42.18;100181.75;6099421;23;20005;-77
2021/05/18 15:17:13;;;;;;;1.67;0.20;;;;;;;20.16;43.32;100180.81;6124065;23;20002;-76
2021/05/18 15:19:43;;;;;;;2.30;0.30;;;;;;;20.33;42.22;100180.69;6095168;23;20006;-77
2021/05/18 15:22:09;;;;;;;1.83;0.30;;;;;;;20.29;41.82;100190.84;6126922;23;20005;-77
2021/05/18 15:24:34;;;;;;;0.57;0.17;;;;;;;19.92;42.79;100193.38;6121929;23;20013;-74
2021/05/18 15:27:00;;;;;;;0.25;0.20;;;;;;;19.35;43.51;100203.69;6096929;23;20312;-75
2021/05/18 15:29:28;;;;;;;0.32;0.20;;;;;;;18.88;44.15;100178.69;6125157;23;20001;-76
2021/05/18 15:32:01;;;;;;;1.05;0.30;;;;;;;18.57;45.03;100215.63;6094278;23;20006;-75
2021/05/18 15:34:26;;;;;;;0.30;0.30;;;;;;;18.52;46.12;100182.59;6097720;23;20425;-75
2021/05/18 15:36:54;;;;;;;0.60;0.20;;;;;;;18.71;45.48;100178.69;6126012;23;20010;-75
2021/05/18 15:39:28;;;;;;;1.67;0.20;;;;;;;18.67;45.06;100184.03;6076134;23;20013;-76
2021/05/18 15:41:53;;;;;;;2.72;0.20;;;;;;;18.52;45.74;100188.13;6123823;23;20006;-77
2021/05/18 15:44:21;;;;;;;0.30;0.10;;;;;;;18.89;45.49;100191.38;6097899;23;20057;-75
2021/05/18 15:46:47;;;;;;;0.35;0.20;;;;;;;19.20;44.24;100190.34;6099919;23;20006;-76
2021/05/18 15:49:12;;;;;;;0.10;0.10;;;;;;;19.19;43.49;100185.97;6122676;23;20006;-76
2021/05/18 15:51:39;;;;;;;3.15;0.20;;;;;;;19.39;42.10;100191.94;6119925;23;20002;-76
2021/05/18 15:54:07;;;;;;;0.17;0.15;;;;;;;19.70;42.26;100192.47;6097092;23;20024;-76
2021/05/18 15:56:39;;;;;;;1.23;0.25;;;;;;;19.86;41.94;100189.97;6075593;23;20382;-75
2021/05/18 15:59:04;;;;;;;0.40;0.20;;;;;;;19.78;41.44;100192.75;6125443;23;20002;-76
2021/05/18 16:01:30;;;;;;;1.60;0.30;;;;;;;19.50;42.47;100207.06;6101459;23;20006;-76
2021/05/18 16:03:55;;;;;;;0.75;0.20;;;;;;;19.25;42.54;100201.25;6101999;23;20061;-77
2021/05/18 16:06:22;;;;;;;0.40;0.30;;;;;;;19.17;43.00;100204.88;6097572;23;20328;-75
2021/05/18 16:11:14;;;;;;;0.65;0.35;;;;;;;20.33;41.60;100208.44;6131190;23;20187;-75
2021/05/18 16:13:40;;;;;;;0.57;0.28;;;;;;;20.20;39.92;100203.97;6076118;23;20057;-77
2021/05/18 16:16:08;;;;;;;3.53;0.30;;;;;;;19.88;41.27;100203.50;6097542;23;20064;-76
2021/05/18 16:18:35;;;;;;;0.40;0.20;;;;;;;19.43;41.91;100209.53;6129164;23;20623;-79
2021/05/18 16:21:01;;;;;;;0.60;0.10;;;;;;;19.11;42.51;100204.22;6098875;23;20010;-78
2021/05/18 16:23:31;;;;;;;0.30;0.20;;;;;;;18.88;43.73;100206.41;6098663;23;20010;-77
2021/05/18 16:25:58;;;;;;;2.35;0.38;;;;;;;18.63;44.63;100219.06;6124242;23;20012;-77
2021/05/18 16:28:24;;;;;;;3.35;0.85;;;;;;;18.38;45.34;100199.34;6127146;23;20002;-77
2021/05/18 16:30:49;;;;;;;0.57;0.10;;;;;;;18.30;46.22;100197.38;6127781;23;20006;-78
2021/05/18 16:33:16;;;;;;;1.35;0.85;;;;;;;18.27;46.57;100209.91;6074418;23;20033;-77
2021/05/18 16:35:42;;;;;;;0.70;0.28;;;;;;;18.12;46.37;100207.59;6099390;23;20417;-78
2021/05/18 16:38:14;;;;;;;2.63;0.22;;;;;;;17.99;46.76;100205.78;6123496;23;20001;-77
2021/05/18 16:40:40;;;;;;;0.55;0.20;;;;;;;17.84;47.62;100207.81;6122652;23;20084;-75
2021/05/18 16:43:07;;;;;;;1.50;0.40;;;;;;;17.57;48.86;100209.69;6120479;23;19998;-75
2021/05/18 16:45:33;;;;;;;5.80;0.60;;;;;;;17.28;49.60;100208.22;6125217;23;20021;-76
2021/05/18 16:47:59;;;;;;;5.88;0.50;;;;;;;16.89;50.55;100201.50;6097350;23;20018;-74
2021/05/18 16:50:24;;;;;;;0.88;0.30;;;;;;;16.66;51.91;100213.59;6119860;23;20432;-74
2021/05/18 16:52:50;;;;;;;4.43;1.17;;;;;;;16.38;52.47;100213.69;6071945;23;20441;-77